Edson Airport
CYET : now visible

Airfield :











YOU CAN JOIN US ON...

 
LOGIN :

Register | Disclaimer

   EN    FR    IT 

 









Legend :    VFR   Marginal VFR   IFR   Intensive IFR   Very Intensive IFR
Visi :
Ceiling :
>= 8 km
>= 3000ft
5 to 8 km
1000 to 3000 ft
1500m to 5 km
500 to 1000 ft
800 to 1500m
200 to 500 ft
< 800m
< 200 ft
Symbols :   Thunderstorms  Fog  Heavy snow  Heavy precipitations  Wind > 20 kt






- Airport Elevation : 3041 ft
- IATA code : YET


CYET - Edson

CURRENT METAR :
  • 060300Z AUTO 05007KT 9SM OVC070 M07/M10 A2970 RMK SLP116

EXPIRED METARs :
  • 060231Z AUTO 05007KT 9SM SCT017 OVC070 M06/M09 A2969 RMK SLP115
  • 060216Z AUTO 06007KT 9SM BKN017 BKN070 M06/M09 A2969 RMK SLP115
  • 060200Z AUTO 04006KT 9SM FEW070 M06/M09 A2969 RMK SLP114
  • 060100Z AUTO 07008KT 9SM CLR M05/M09 A2968 RMK SLP111
  • 060038Z AUTO 05007KT 9SM SCT046 M05/M09 A2968 RMK SLP110

TAF N/A



MET'MAP, your aeronautical weather chart ! - Copyright ORBIFLY December 2007 - Disclaimer

ORBIFLY MET'MAP TEAM :

Programming & Development : Alexandra Zaïnal
Concept & original design : Baudouin d'Aumeries
Assistance for programming : Marc-Olivier Méhu
Technical & hardware support : Manuel Goepfert

Contact : metmap@orbifly.com




SOURCES & CREDITS :

   NOAA       Earth
Advisory